sensor_id;sensor_type;location;lat;lon;timestamp;pressure;altitude;pressure_sealevel;temperature;humidity
62544;BME280;48597;49.030;1.822;2023-02-16T00:01:52;101750.69;;;20.40;34.06
62544;BME280;48597;49.030;1.822;2023-02-16T00:04:19;101748.28;;;20.38;34.14
62544;BME280;48597;49.030;1.822;2023-02-16T00:06:45;101747.47;;;20.38;34.03
62544;BME280;48597;49.030;1.822;2023-02-16T00:09:10;101745.84;;;20.37;34.10
62544;BME280;48597;49.030;1.822;2023-02-16T00:11:36;101751.94;;;20.39;33.95
62544;BME280;48597;49.030;1.822;2023-02-16T00:14:20;101754.44;;;20.37;34.02
62544;BME280;48597;49.030;1.822;2023-02-16T00:16:50;101748.28;;;20.38;34.07
62544;BME280;48597;49.030;1.822;2023-02-16T00:19:23;101746.22;;;20.39;34.08
62544;BME280;48597;49.030;1.822;2023-02-16T00:21:49;101739.31;;;20.36;33.95
62544;BME280;48597;49.030;1.822;2023-02-16T00:24:15;101729.84;;;20.39;33.86
62544;BME280;48597;49.030;1.822;2023-02-16T00:26:41;101734.75;;;20.39;34.00
62544;BME280;48597;49.030;1.822;2023-02-16T00:29:09;101730.66;;;20.40;33.98
62544;BME280;48597;49.030;1.822;2023-02-16T00:31:35;101725.31;;;20.42;34.01
62544;BME280;48597;49.030;1.822;2023-02-16T00:36:44;101723.19;;;20.46;34.00
62544;BME280;48597;49.030;1.822;2023-02-16T00:39:09;101725.72;;;20.40;33.88
62544;BME280;48597;49.030;1.822;2023-02-16T00:41:34;101722.00;;;20.43;33.97
62544;BME280;48597;49.030;1.822;2023-02-16T00:44:15;101709.31;;;20.44;34.03
62544;BME280;48597;49.030;1.822;2023-02-16T00:46:42;101724.88;;;20.43;33.91
62544;BME280;48597;49.030;1.822;2023-02-16T00:49:11;101719.94;;;20.44;33.79
62544;BME280;48597;49.030;1.822;2023-02-16T00:51:39;101720.81;;;20.41;33.82
62544;BME280;48597;49.030;1.822;2023-02-16T00:54:04;101728.53;;;20.44;33.81
62544;BME280;48597;49.030;1.822;2023-02-16T00:56:30;101720.38;;;20.42;33.80
62544;BME280;48597;49.030;1.822;2023-02-16T00:58:57;101723.25;;;20.42;33.90
62544;BME280;48597;49.030;1.822;2023-02-16T01:01:25;101718.31;;;20.43;33.87
62544;BME280;48597;49.030;1.822;2023-02-16T01:03:53;101719.19;;;20.40;33.81
62544;BME280;48597;49.030;1.822;2023-02-16T01:06:18;101713.41;;;20.43;33.82
62544;BME280;48597;49.030;1.822;2023-02-16T01:09:11;101699.91;;;20.44;33.75
62544;BME280;48597;49.030;1.822;2023-02-16T01:11:55;101704.81;;;20.43;33.83
62544;BME280;48597;49.030;1.822;2023-02-16T01:14:21;101695.41;;;20.43;33.83
62544;BME280;48597;49.030;1.822;2023-02-16T01:16:46;101706.06;;;20.42;33.88
62544;BME280;48597;49.030;1.822;2023-02-16T01:19:11;101697.03;;;20.44;33.83
62544;BME280;48597;49.030;1.822;2023-02-16T01:21:37;101693.31;;;20.47;33.73
62544;BME280;48597;49.030;1.822;2023-02-16T01:24:02;101689.25;;;20.44;33.65
62544;BME280;48597;49.030;1.822;2023-02-16T01:26:27;101694.19;;;20.44;33.68
62544;BME280;48597;49.030;1.822;2023-02-16T01:28:53;101696.22;;;20.43;33.67
62544;BME280;48597;49.030;1.822;2023-02-16T01:31:18;101691.69;;;20.46;33.62
62544;BME280;48597;49.030;1.822;2023-02-16T01:33:44;101693.31;;;20.47;33.77
62544;BME280;48597;49.030;1.822;2023-02-16T01:36:24;101697.81;;;20.48;33.64
62544;BME280;48597;49.030;1.822;2023-02-16T01:38:50;101695.00;;;20.44;33.70
62544;BME280;48597;49.030;1.822;2023-02-16T01:41:35;101689.63;;;20.46;33.46
62544;BME280;48597;49.030;1.822;2023-02-16T01:44:04;101681.84;;;20.47;33.47
62544;BME280;48597;49.030;1.822;2023-02-16T01:46:38;101694.94;;;20.48;33.60
62544;BME280;48597;49.030;1.822;2023-02-16T01:49:08;101691.63;;;20.49;33.53
62544;BME280;48597;49.030;1.822;2023-02-16T01:51:46;101692.50;;;20.46;33.63
62544;BME280;48597;49.030;1.822;2023-02-16T01:59:38;101683.84;;;20.50;33.52
62544;BME280;48597;49.030;1.822;2023-02-16T02:02:08;101687.22;;;20.45;33.45
62544;BME280;48597;49.030;1.822;2023-02-16T02:04:43;101677.38;;;20.46;33.52
62544;BME280;48597;49.030;1.822;2023-02-16T02:07:31;101673.31;;;20.43;33.66
62544;BME280;48597;49.030;1.822;2023-02-16T02:10:00;101679.84;;;20.44;33.51
62544;BME280;48597;49.030;1.822;2023-02-16T02:12:31;101674.94;;;20.44;33.48
62544;BME280;48597;49.030;1.822;2023-02-16T02:14:58;101666.41;;;20.41;33.56
62544;BME280;48597;49.030;1.822;2023-02-16T02:17:23;101661.91;;;20.40;33.66
62544;BME280;48597;49.030;1.822;2023-02-16T02:19:52;101657.81;;;20.41;33.58
62544;BME280;48597;49.030;1.822;2023-02-16T02:25:13;101650.94;;;20.38;33.53
62544;BME280;48597;49.030;1.822;2023-02-16T02:30:23;101651.38;;;20.37;33.55
62544;BME280;48597;49.030;1.822;2023-02-16T02:35:35;101637.44;;;20.35;33.54
62544;BME280;48597;49.030;1.822;2023-02-16T02:38:21;101633.78;;;20.34;33.54
62544;BME280;48597;49.030;1.822;2023-02-16T02:45:46;101630.91;;;20.34;33.62
62544;BME280;48597;49.030;1.822;2023-02-16T02:48:13;101637.44;;;20.35;33.54
62544;BME280;48597;49.030;1.822;2023-02-16T02:53:45;101632.97;;;20.34;33.53
62544;BME280;48597;49.030;1.822;2023-02-16T02:56:12;101633.41;;;20.32;33.55
62544;BME280;48597;49.030;1.822;2023-02-16T02:59:00;101628.91;;;20.31;33.50
62544;BME280;48597;49.030;1.822;2023-02-16T03:01:47;101634.25;;;20.29;33.58
62544;BME280;48597;49.030;1.822;2023-02-16T03:04:14;101624.47;;;20.27;33.42
62544;BME280;48597;49.030;1.822;2023-02-16T03:06:43;101621.13;;;20.32;33.60
62544;BME280;48597;49.030;1.822;2023-02-16T03:09:11;101620.69;;;20.33;33.47
62544;BME280;48597;49.030;1.822;2023-02-16T03:11:38;101619.13;;;20.29;33.51
62544;BME280;48597;49.030;1.822;2023-02-16T03:16:53;101615.84;;;20.30;33.61
62544;BME280;48597;49.030;1.822;2023-02-16T03:19:38;101612.59;;;20.28;33.41
62544;BME280;48597;49.030;1.822;2023-02-16T03:22:23;101619.56;;;20.27;33.48
62544;BME280;48597;49.030;1.822;2023-02-16T03:25:07;101616.78;;;20.24;33.59
62544;BME280;48597;49.030;1.822;2023-02-16T03:27:51;101621.75;;;20.20;33.61
62544;BME280;48597;49.030;1.822;2023-02-16T03:30:36;101614.41;;;20.19;33.52
62544;BME280;48597;49.030;1.822;2023-02-16T03:33:01;101618.09;;;20.19;33.52
62544;BME280;48597;49.030;1.822;2023-02-16T03:35:27;101616.09;;;20.16;33.56
62544;BME280;48597;49.030;1.822;2023-02-16T03:37:52;101614.84;;;20.17;33.69
62544;BME280;48597;49.030;1.822;2023-02-16T03:40:18;101612.41;;;20.16;33.57
62544;BME280;48597;49.030;1.822;2023-02-16T03:42:52;101614.47;;;20.15;33.58
62544;BME280;48597;49.030;1.822;2023-02-16T03:45:19;101618.09;;;20.19;33.47
62544;BME280;48597;49.030;1.822;2023-02-16T03:47:45;101619.75;;;20.17;33.55
62544;BME280;48597;49.030;1.822;2023-02-16T03:50:10;101616.84;;;20.20;33.52
62544;BME280;48597;49.030;1.822;2023-02-16T03:52:36;101617.66;;;20.21;33.46
62544;BME280;48597;49.030;1.822;2023-02-16T03:55:01;101617.66;;;20.21;33.42
62544;BME280;48597;49.030;1.822;2023-02-16T03:57:26;101613.16;;;20.20;33.55
62544;BME280;48597;49.030;1.822;2023-02-16T03:59:52;101616.41;;;20.22;33.47
62544;BME280;48597;49.030;1.822;2023-02-16T04:02:18;101604.88;;;20.25;33.52
62544;BME280;48597;49.030;1.822;2023-02-16T04:04:44;101610.97;;;20.27;33.38
62544;BME280;48597;49.030;1.822;2023-02-16T04:07:09;101627.72;;;20.29;33.33
62544;BME280;48597;49.030;1.822;2023-02-16T04:09:34;101617.94;;;20.26;33.38
62544;BME280;48597;49.030;1.822;2023-02-16T04:11:59;101622.06;;;20.25;33.44
62544;BME280;48597;49.030;1.822;2023-02-16T04:14:43;101616.69;;;20.27;33.35
62544;BME280;48597;49.030;1.822;2023-02-16T04:17:08;101620.69;;;20.33;33.37
62544;BME280;48597;49.030;1.822;2023-02-16T04:19:34;101626.91;;;20.28;33.31
62544;BME280;48597;49.030;1.822;2023-02-16T04:21:59;101630.06;;;20.38;33.34
62544;BME280;48597;49.030;1.822;2023-02-16T04:24:24;101622.72;;;20.37;33.38
62544;BME280;48597;49.030;1.822;2023-02-16T04:26:49;101623.56;;;20.33;33.32
62544;BME280;48597;49.030;1.822;2023-02-16T04:29:15;101623.56;;;20.33;33.28
62544;BME280;48597;49.030;1.822;2023-02-16T04:31:40;101634.63;;;20.31;33.35
62544;BME280;48597;49.030;1.822;2023-02-16T04:34:05;101625.16;;;20.38;33.20
62544;BME280;48597;49.030;1.822;2023-02-16T04:36:30;101629.28;;;20.33;33.31
62544;BME280;48597;49.030;1.822;2023-02-16T04:38:56;101630.97;;;20.31;33.33
62544;BME280;48597;49.030;1.822;2023-02-16T04:41:21;101628.03;;;20.34;33.35
62544;BME280;48597;49.030;1.822;2023-02-16T04:43:46;101620.75;;;20.30;33.44
62544;BME280;48597;49.030;1.822;2023-02-16T04:46:11;101619.44;;;20.38;33.33
62544;BME280;48597;49.030;1.822;2023-02-16T04:48:37;101631.66;;;20.39;33.38
62544;BME280;48597;49.030;1.822;2023-02-16T04:51:03;101617.84;;;20.33;33.51
62544;BME280;48597;49.030;1.822;2023-02-16T04:53:29;101624.38;;;20.34;33.38
62544;BME280;48597;49.030;1.822;2023-02-16T04:55:54;101632.97;;;20.34;33.47
62544;BME280;48597;49.030;1.822;2023-02-16T04:58:19;101637.13;;;20.29;33.49
62544;BME280;48597;49.030;1.822;2023-02-16T05:00:44;101628.53;;;20.29;33.42
62544;BME280;48597;49.030;1.822;2023-02-16T05:03:10;101622.06;;;20.25;33.43
62544;BME280;48597;49.030;1.822;2023-02-16T05:05:35;101622.00;;;20.29;33.42
62544;BME280;48597;49.030;1.822;2023-02-16T05:08:01;101623.19;;;20.31;33.40
62544;BME280;48597;49.030;1.822;2023-02-16T05:10:27;101609.72;;;20.28;33.41
62544;BME280;48597;49.030;1.822;2023-02-16T05:12:52;101618.69;;;20.30;33.36
62544;BME280;48597;49.030;1.822;2023-02-16T05:15:36;101619.13;;;20.29;33.35
62544;BME280;48597;49.030;1.822;2023-02-16T05:18:01;101610.59;;;20.25;33.32
62544;BME280;48597;49.030;1.822;2023-02-16T05:20:27;101611.78;;;20.28;33.33
62544;BME280;48597;49.030;1.822;2023-02-16T05:23:12;101626.06;;;20.31;33.28
62544;BME280;48597;49.030;1.822;2023-02-16T05:25:39;101625.19;;;20.34;33.31
62544;BME280;48597;49.030;1.822;2023-02-16T05:28:04;101619.09;;;20.32;33.22
62544;BME280;48597;49.030;1.822;2023-02-16T05:30:30;101617.41;;;20.35;33.28
62544;BME280;48597;49.030;1.822;2023-02-16T05:32:55;101619.94;;;20.29;33.21
62544;BME280;48597;49.030;1.822;2023-02-16T05:35:20;101619.44;;;20.38;33.33
62544;BME280;48597;49.030;1.822;2023-02-16T05:37:47;101610.03;;;20.38;33.27
62544;BME280;48597;49.030;1.822;2023-02-16T05:40:12;101623.53;;;20.37;33.19
62544;BME280;48597;49.030;1.822;2023-02-16T05:42:38;101623.88;;;20.39;33.21
62544;BME280;48597;49.030;1.822;2023-02-16T05:45:03;101624.69;;;20.40;33.21
62544;BME280;48597;49.030;1.822;2023-02-16T05:47:28;101629.63;;;20.39;33.29
62544;BME280;48597;49.030;1.822;2023-02-16T05:49:53;101631.94;;;20.48;33.10
62544;BME280;48597;49.030;1.822;2023-02-16T05:52:19;101627.06;;;20.45;33.05
62544;BME280;48597;49.030;1.822;2023-02-16T05:54:44;101631.19;;;20.44;33.17
62544;BME280;48597;49.030;1.822;2023-02-16T05:57:09;101633.22;;;20.43;33.15
62544;BME280;48597;49.030;1.822;2023-02-16T05:59:34;101624.22;;;20.45;33.09
62544;BME280;48597;49.030;1.822;2023-02-16T06:02:00;101633.22;;;20.43;33.18
62544;BME280;48597;49.030;1.822;2023-02-16T06:04:26;101635.28;;;20.43;33.23
62544;BME280;48597;49.030;1.822;2023-02-16T06:06:52;101631.66;;;20.39;33.20
62544;BME280;48597;49.030;1.822;2023-02-16T06:09:18;101636.97;;;20.40;33.38
62544;BME280;48597;49.030;1.822;2023-02-16T06:11:43;101639.81;;;20.40;33.25
62544;BME280;48597;49.030;1.822;2023-02-16T06:14:09;101641.44;;;20.41;33.14
62544;BME280;48597;49.030;1.822;2023-02-16T06:16:36;101634.91;;;20.41;33.24
62544;BME280;48597;49.030;1.822;2023-02-16T06:19:01;101640.19;;;20.42;33.32
62544;BME280;48597;49.030;1.822;2023-02-16T06:21:27;101637.38;;;20.39;33.17
62544;BME280;48597;49.030;1.822;2023-02-16T06:23:52;101635.44;;;20.36;33.33
62544;BME280;48597;49.030;1.822;2023-02-16T06:26:18;101632.56;;;20.36;33.27
62544;BME280;48597;49.030;1.822;2023-02-16T06:28:43;101642.38;;;20.34;33.33
62544;BME280;48597;49.030;1.822;2023-02-16T06:31:09;101641.16;;;20.32;33.23
62544;BME280;48597;49.030;1.822;2023-02-16T06:33:34;101647.72;;;20.32;33.31
62544;BME280;48597;49.030;1.822;2023-02-16T06:35:59;101649.81;;;20.28;33.34
62544;BME280;48597;49.030;1.822;2023-02-16T06:38:25;101661.69;;;20.27;33.27
62544;BME280;48597;49.030;1.822;2023-02-16T06:40:53;101657.69;;;20.24;33.29
62544;BME280;48597;49.030;1.822;2023-02-16T06:43:18;101672.00;;;20.24;33.33
62544;BME280;48597;49.030;1.822;2023-02-16T06:45:44;101658.53;;;20.21;33.33
62544;BME280;48597;49.030;1.822;2023-02-16T06:48:09;101668.38;;;20.20;33.50
62544;BME280;48597;49.030;1.822;2023-02-16T06:50:35;101679.00;;;20.20;33.37
62544;BME280;48597;49.030;1.822;2023-02-16T06:53:00;101677.81;;;20.17;33.45
62544;BME280;48597;49.030;1.822;2023-02-16T06:55:25;101681.09;;;20.16;33.45
62544;BME280;48597;49.030;1.822;2023-02-16T06:57:50;101686.41;;;20.17;33.49
62544;BME280;48597;49.030;1.822;2023-02-16T07:00:16;101679.50;;;20.15;33.31
62544;BME280;48597;49.030;1.822;2023-02-16T07:02:41;101680.31;;;20.15;33.44
62544;BME280;48597;49.030;1.822;2023-02-16T07:05:07;101686.78;;;20.19;33.35
62544;BME280;48597;49.030;1.822;2023-02-16T07:07:33;101690.47;;;20.20;33.30
62544;BME280;48597;49.030;1.822;2023-02-16T07:09:58;101683.53;;;20.17;33.38
62544;BME280;48597;49.030;1.822;2023-02-16T07:12:23;101678.56;;;20.21;33.35
62544;BME280;48597;49.030;1.822;2023-02-16T07:14:48;101684.72;;;20.20;33.29
62544;BME280;48597;49.030;1.822;2023-02-16T07:17:14;101679.81;;;20.20;33.21
62544;BME280;48597;49.030;1.822;2023-02-16T07:19:39;101681.06;;;20.19;33.31
62544;BME280;48597;49.030;1.822;2023-02-16T07:22:05;101685.94;;;20.22;33.27
62544;BME280;48597;49.030;1.822;2023-02-16T07:24:30;101680.13;;;20.26;33.23
62544;BME280;48597;49.030;1.822;2023-02-16T07:26:55;101678.44;;;20.28;33.22
62544;BME280;48597;49.030;1.822;2023-02-16T07:29:21;101689.91;;;20.28;33.18
62544;BME280;48597;49.030;1.822;2023-02-16T07:31:46;101688.22;;;20.31;33.25
62544;BME280;48597;49.030;1.822;2023-02-16T07:34:11;101685.41;;;20.27;33.25
62544;BME280;48597;49.030;1.822;2023-02-16T07:36:36;101692.28;;;20.33;33.22
62544;BME280;48597;49.030;1.822;2023-02-16T07:39:02;101693.94;;;20.31;33.32
62544;BME280;48597;49.030;1.822;2023-02-16T07:41:27;101696.38;;;20.32;33.31
62544;BME280;48597;49.030;1.822;2023-02-16T07:43:52;101702.94;;;20.33;33.21
62544;BME280;48597;49.030;1.822;2023-02-16T07:46:18;101708.00;;;20.22;33.42
62544;BME280;48597;49.030;1.822;2023-02-16T07:48:46;101712.16;;;20.17;34.17
62544;BME280;48597;49.030;1.822;2023-02-16T07:51:11;101710.13;;;20.18;34.69
62544;BME280;48597;49.030;1.822;2023-02-16T07:53:36;101703.19;;;20.15;34.66
62544;BME280;48597;49.030;1.822;2023-02-16T07:56:01;101704.81;;;20.16;34.71
62544;BME280;48597;49.030;1.822;2023-02-16T07:58:27;101705.25;;;20.15;35.02
62544;BME280;48597;49.030;1.822;2023-02-16T08:00:56;101708.88;;;20.19;35.09
62544;BME280;48597;49.030;1.822;2023-02-16T08:03:30;101697.84;;;20.17;35.04
62544;BME280;48597;49.030;1.822;2023-02-16T08:05:59;101703.97;;;20.19;34.87
62544;BME280;48597;49.030;1.822;2023-02-16T08:08:24;101704.78;;;20.20;35.07
62544;BME280;48597;49.030;1.822;2023-02-16T08:10:49;101697.47;;;20.15;34.77
62544;BME280;48597;49.030;1.822;2023-02-16T08:13:15;101698.66;;;20.18;34.76
62544;BME280;48597;49.030;1.822;2023-02-16T08:15:43;101695.00;;;20.17;34.54
62544;BME280;48597;49.030;1.822;2023-02-16T08:18:09;101698.22;;;20.19;35.00
62544;BME280;48597;49.030;1.822;2023-02-16T08:20:34;101689.66;;;20.19;34.71
62544;BME280;48597;49.030;1.822;2023-02-16T08:22:59;101682.69;;;20.20;34.66
62544;BME280;48597;49.030;1.822;2023-02-16T08:25:24;101685.50;;;20.24;34.44
62544;BME280;48597;49.030;1.822;2023-02-16T08:27:50;101681.75;;;20.27;34.68
62544;BME280;48597;49.030;1.822;2023-02-16T08:30:16;101677.22;;;20.29;34.60
62544;BME280;48597;49.030;1.822;2023-02-16T08:32:42;101691.47;;;20.33;34.62
62544;BME280;48597;49.030;1.822;2023-02-16T08:35:08;101681.63;;;20.34;34.75
62544;BME280;48597;49.030;1.822;2023-02-16T08:37:36;101682.88;;;20.33;34.75
62544;BME280;48597;49.030;1.822;2023-02-16T08:40:01;101676.78;;;20.31;34.60
62544;BME280;48597;49.030;1.822;2023-02-16T08:42:27;101675.09;;;20.37;34.66
62544;BME280;48597;49.030;1.822;2023-02-16T08:44:52;101682.84;;;20.37;34.58
62544;BME280;48597;49.030;1.822;2023-02-16T08:47:19;101692.19;;;20.41;34.70
62544;BME280;48597;49.030;1.822;2023-02-16T08:49:45;101697.09;;;20.40;34.38
62544;BME280;48597;49.030;1.822;2023-02-16T08:52:11;101715.84;;;20.45;34.54
62544;BME280;48597;49.030;1.822;2023-02-16T08:54:36;101733.03;;;20.45;34.57
62544;BME280;48597;49.030;1.822;2023-02-16T08:57:02;101742.84;;;20.44;34.64
62544;BME280;48597;49.030;1.822;2023-02-16T08:59:28;101742.00;;;20.47;34.60
62544;BME280;48597;49.030;1.822;2023-02-16T09:01:53;101732.22;;;20.44;34.56
62544;BME280;48597;49.030;1.822;2023-02-16T09:04:18;101743.69;;;20.44;34.49
62544;BME280;48597;49.030;1.822;2023-02-16T09:06:44;101736.28;;;20.47;34.72
62544;BME280;48597;49.030;1.822;2023-02-16T09:09:10;101734.69;;;20.42;34.57
62544;BME280;48597;49.030;1.822;2023-02-16T09:11:37;101747.81;;;20.40;34.44
62544;BME280;48597;49.030;1.822;2023-02-16T09:14:02;101747.00;;;20.39;34.67
62544;BME280;48597;49.030;1.822;2023-02-16T09:16:28;101742.91;;;20.40;34.54
62544;BME280;48597;49.030;1.822;2023-02-16T09:18:57;101740.13;;;20.37;34.46
62544;BME280;48597;49.030;1.822;2023-02-16T09:21:24;101736.44;;;20.36;34.46
62544;BME280;48597;49.030;1.822;2023-02-16T09:23:49;101728.66;;;20.37;34.57
62544;BME280;48597;49.030;1.822;2023-02-16T09:26:15;101734.41;;;20.37;34.70
62544;BME280;48597;49.030;1.822;2023-02-16T09:28:41;101728.25;;;20.34;34.76
62544;BME280;48597;49.030;1.822;2023-02-16T09:31:12;101734.41;;;20.37;34.73
62544;BME280;48597;49.030;1.822;2023-02-16T09:33:38;101734.00;;;20.34;34.61
62544;BME280;48597;49.030;1.822;2023-02-16T09:36:07;101733.19;;;20.34;34.51
62544;BME280;48597;49.030;1.822;2023-02-16T09:38:33;101726.63;;;20.33;34.71
62544;BME280;48597;49.030;1.822;2023-02-16T09:41:04;101733.59;;;20.32;34.87
62544;BME280;48597;49.030;1.822;2023-02-16T09:46:01;101726.69;;;20.30;34.78
62544;BME280;48597;49.030;1.822;2023-02-16T09:50:56;101725.88;;;20.29;34.75
62544;BME280;48597;49.030;1.822;2023-02-16T09:53:29;101723.44;;;20.28;34.69
62544;BME280;48597;49.030;1.822;2023-02-16T09:55:58;101724.69;;;20.27;34.89
62544;BME280;48597;49.030;1.822;2023-02-16T09:58:38;101731.22;;;20.27;34.78
62544;BME280;48597;49.030;1.822;2023-02-16T10:06:28;101732.13;;;20.24;34.86
62544;BME280;48597;49.030;1.822;2023-02-16T10:09:00;101733.69;;;20.25;34.87
62544;BME280;48597;49.030;1.822;2023-02-16T10:11:32;101749.72;;;20.23;34.94
62544;BME280;48597;49.030;1.822;2023-02-16T10:17:12;101754.63;;;20.22;34.91
62544;BME280;48597;49.030;1.822;2023-02-16T10:19:37;101758.72;;;20.21;34.91
62544;BME280;48597;49.030;1.822;2023-02-16T10:22:04;101750.16;;;20.21;34.95
62544;BME280;48597;49.030;1.822;2023-02-16T10:24:31;101768.56;;;20.20;35.02
62544;BME280;48597;49.030;1.822;2023-02-16T10:27:04;101752.19;;;20.21;35.16
62544;BME280;48597;49.030;1.822;2023-02-16T10:29:32;101750.16;;;20.21;35.00
62544;BME280;48597;49.030;1.822;2023-02-16T10:35:00;101764.88;;;20.20;34.97
62544;BME280;48597;49.030;1.822;2023-02-16T10:40:39;101758.34;;;20.19;35.11
62544;BME280;48597;49.030;1.822;2023-02-16T10:45:46;101750.19;;;20.18;35.29
62544;BME280;48597;49.030;1.822;2023-02-16T10:48:13;101758.34;;;20.19;35.27
62544;BME280;48597;49.030;1.822;2023-02-16T10:53:14;101755.53;;;20.16;35.22
62544;BME280;48597;49.030;1.822;2023-02-16T10:55:41;101749.81;;;20.16;35.29
62544;BME280;48597;49.030;1.822;2023-02-16T10:58:12;101757.16;;;20.17;35.44
62544;BME280;48597;49.030;1.822;2023-02-16T11:00:48;101756.34;;;20.16;35.32
62544;BME280;48597;49.030;1.822;2023-02-16T11:03:16;101746.13;;;20.15;35.33
62544;BME280;48597;49.030;1.822;2023-02-16T11:05:44;101760.44;;;20.15;35.37
62544;BME280;48597;49.030;1.822;2023-02-16T11:08:10;101749.81;;;20.16;35.35
62544;BME280;48597;49.030;1.822;2023-02-16T11:13:03;101749.81;;;20.16;35.40
62544;BME280;48597;49.030;1.822;2023-02-16T11:15:28;101738.34;;;20.16;35.37
62544;BME280;48597;49.030;1.822;2023-02-16T11:23:21;101736.72;;;20.15;35.41
62544;BME280;48597;49.030;1.822;2023-02-16T11:28:24;101738.78;;;20.14;35.54
62544;BME280;48597;49.030;1.822;2023-02-16T11:30:51;101731.44;;;20.13;35.53
62544;BME280;48597;49.030;1.822;2023-02-16T11:33:24;101722.84;;;20.13;35.54
62544;BME280;48597;49.030;1.822;2023-02-16T11:35:50;101716.69;;;20.15;35.52
62544;BME280;48597;49.030;1.822;2023-02-16T11:38:26;101713.44;;;20.13;35.61
62544;BME280;48597;49.030;1.822;2023-02-16T11:40:52;101713.44;;;20.13;35.62
62544;BME280;48597;49.030;1.822;2023-02-16T11:43:18;101711.41;;;20.13;35.63
62544;BME280;48597;49.030;1.822;2023-02-16T11:45:44;101706.94;;;20.12;35.59
62544;BME280;48597;49.030;1.822;2023-02-16T11:48:24;101708.53;;;20.13;35.79
62544;BME280;48597;49.030;1.822;2023-02-16T11:51:01;101714.25;;;20.13;35.65
62544;BME280;48597;49.030;1.822;2023-02-16T11:53:31;101706.94;;;20.12;35.80
62544;BME280;48597;49.030;1.822;2023-02-16T11:58:40;101686.09;;;20.12;35.82
62544;BME280;48597;49.030;1.822;2023-02-16T12:14:08;101683.25;;;20.12;35.83
62544;BME280;48597;49.030;1.822;2023-02-16T12:16:42;101676.69;;;20.11;35.80
62544;BME280;48597;49.030;1.822;2023-02-16T12:37:41;101692.25;;;20.10;36.13
62544;BME280;48597;49.030;1.822;2023-02-16T12:45:18;101684.91;;;20.09;36.00
62544;BME280;48597;49.030;1.822;2023-02-16T12:50:28;101676.31;;;20.09;36.14
62544;BME280;48597;49.030;1.822;2023-02-16T12:53:05;101672.22;;;20.10;36.18
62544;BME280;48597;49.030;1.822;2023-02-16T12:58:01;101668.53;;;20.10;36.18
62544;BME280;48597;49.030;1.822;2023-02-16T13:05:52;101658.28;;;20.12;36.30
62544;BME280;48597;49.030;1.822;2023-02-16T13:08:24;101659.06;;;20.13;36.33
62544;BME280;48597;49.030;1.822;2023-02-16T13:10:57;101644.72;;;20.16;36.15
62544;BME280;48597;49.030;1.822;2023-02-16T13:13:26;101641.66;;;20.27;35.96
62544;BME280;48597;49.030;1.822;2023-02-16T13:18:25;101643.69;;;20.53;35.64
62544;BME280;48597;49.030;1.822;2023-02-16T13:20:54;101644.66;;;20.90;34.97
62544;BME280;48597;49.030;1.822;2023-02-16T13:29:15;101626.44;;;21.39;33.80
62544;BME280;48597;49.030;1.822;2023-02-16T13:40:26;101610.69;;;20.45;35.67
62544;BME280;48597;49.030;1.822;2023-02-16T13:45:25;101606.78;;;20.36;36.00
62544;BME280;48597;49.030;1.822;2023-02-16T13:47:52;101606.38;;;20.33;35.96
62544;BME280;48597;49.030;1.822;2023-02-16T13:52:47;101603.56;;;20.30;36.14
62544;BME280;48597;49.030;1.822;2023-02-16T14:03:00;101595.50;;;20.25;36.25
62544;BME280;48597;49.030;1.822;2023-02-16T14:05:27;101592.66;;;20.25;36.30
62544;BME280;48597;49.030;1.822;2023-02-16T14:13:15;101595.13;;;20.23;36.54
62544;BME280;48597;49.030;1.822;2023-02-16T14:15:50;101606.16;;;20.24;36.37
62544;BME280;48597;49.030;1.822;2023-02-16T14:18:20;101605.34;;;20.24;36.41
62544;BME280;48597;49.030;1.822;2023-02-16T14:20:45;101603.72;;;20.23;36.42
62544;BME280;48597;49.030;1.822;2023-02-16T14:23:22;101604.53;;;20.23;36.48
62544;BME280;48597;49.030;1.822;2023-02-16T14:25:51;101595.13;;;20.23;36.47
62544;BME280;48597;49.030;1.822;2023-02-16T14:30:55;101602.09;;;20.22;36.52
62544;BME280;48597;49.030;1.822;2023-02-16T14:41:06;101608.63;;;20.22;36.47
62544;BME280;48597;49.030;1.822;2023-02-16T14:43:44;101599.22;;;20.22;36.49
62544;BME280;48597;49.030;1.822;2023-02-16T14:49:46;101590.66;;;20.22;36.64
62544;BME280;48597;49.030;1.822;2023-02-16T14:54:06;101598.84;;;20.20;36.60
62544;BME280;48597;49.030;1.822;2023-02-16T14:59:05;101595.19;;;20.19;36.72
62544;BME280;48597;49.030;1.822;2023-02-16T15:01:42;101597.25;;;20.19;36.70
62544;BME280;48597;49.030;1.822;2023-02-16T15:04:08;101595.19;;;20.19;36.63
62544;BME280;48597;49.030;1.822;2023-02-16T15:06:37;101598.03;;;20.19;36.77
62544;BME280;48597;49.030;1.822;2023-02-16T15:09:14;101602.97;;;20.19;36.63
62544;BME280;48597;49.030;1.822;2023-02-16T15:11:48;101594.81;;;20.17;36.70
62544;BME280;48597;49.030;1.822;2023-02-16T15:14:35;101594.81;;;20.17;36.72
62544;BME280;48597;49.030;1.822;2023-02-16T15:17:04;101600.53;;;20.17;36.66
62544;BME280;48597;49.030;1.822;2023-02-16T15:19:30;101590.31;;;20.16;36.69
62544;BME280;48597;49.030;1.822;2023-02-16T15:22:39;101594.81;;;20.17;36.79
62544;BME280;48597;49.030;1.822;2023-02-16T15:25:06;101594.81;;;20.17;36.73
62544;BME280;48597;49.030;1.822;2023-02-16T15:27:40;101588.28;;;20.17;36.73
62544;BME280;48597;49.030;1.822;2023-02-16T15:30:24;101605.44;;;20.17;36.81
62544;BME280;48597;49.030;1.822;2023-02-16T15:32:51;101597.66;;;20.17;36.87
62544;BME280;48597;49.030;1.822;2023-02-16T15:35:36;101598.09;;;20.16;36.87
62544;BME280;48597;49.030;1.822;2023-02-16T15:38:06;101598.09;;;20.16;36.77
62544;BME280;48597;49.030;1.822;2023-02-16T15:40:33;101605.06;;;20.15;36.82
62544;BME280;48597;49.030;1.822;2023-02-16T15:43:13;101605.06;;;20.15;36.92